ADDS METAR Data INFO
IDs: Format: Raw Decoded Include TAF

Data at: 0642 UTC 23 Feb 2018

KALS 230552Z AUTO 13007KT 10SM CLR M12/M14 A3000 RMK AO2 SLP186 T11171144 11017 21117 50001
KALS 230452Z AUTO 10005KT 10SM CLR M11/M14 A3001 RMK AO2 SLP194 T11061139
KALS 230352Z AUTO VRB04KT 10SM CLR M09/M12 A3002 RMK AO2 SLP199 T10891122
KALS 230252Z AUTO 17008KT 10SM CLR M08/M12 A3000 RMK AO2 SLP195 T10781117 51016
KALS 230152Z AUTO 18007KT 10SM CLR M07/M13 A2998 RMK AO2 SLP185 T10721128
KALS 230052Z AUTO 22012KT 10SM CLR M04/M13 A2996 RMK AO2 SLP165 T10391128
KALS 222352Z AUTO 22018KT 10SM CLR M02/M12 A2994 RMK AO2 PK WND 24026/2301 SLP153 T10171122 10022 21017 51014
KALS 222252Z AUTO 23022G29KT 10SM SCT047 SCT055 00/M12 A2992 RMK AO2 PK WND 21031/2238 SLP137 T00001122
KALS 222152Z AUTO 21025G31KT 10SM FEW050 01/M13 A2992 RMK AO2 PK WND 21034/2053 SLP138 T00111128
KALS 222052Z AUTO 21025G33KT 10SM FEW050 02/M13 A2989 RMK AO2 PK WND 21038/2034 SLP121 T00171133 56006
KALS 221952Z AUTO 22025G32KT 10SM CLR 02/M13 A2989 RMK AO2 PK WND 21034/1923 SLP121 T00171128
KALS 221852Z AUTO 21022G32KT 10SM CLR 02/M12 A2991 RMK AO2 PK WND 20035/1827 SLP125 T00221117
KALS 221752Z AUTO 21024G32KT 10SM CLR 02/M11 A2991 RMK AO2 PK WND 19034/1742 SLP126 T00221106 10022 21056 55000
KALS 221652Z AUTO 19017G27KT 10SM FEW100 00/M07 A2990 RMK AO2 PK WND 19027/1619 SLP133 T00001067
KALS 221552Z AUTO 19017KT 10SM FEW070 BKN090 OVC110 M02/M06 A2991 RMK AO2 SLP141 T10221061
KALS 221452Z AUTO 16011KT 10SM SCT060 OVC080 M04/M06 A2991 RMK AO2 SLP147 T10441061 53005
KALS 221352Z AUTO 17009KT 10SM SCT070 BKN090 M04/M07 A2990 RMK AO2 SLP143 T10441067
KALS 221252Z AUTO 18013KT 10SM OVC095 M03/M06 A2989 RMK AO2 SLP133 T10331056
KALS 221152Z AUTO 17009KT 10SM SCT060 OVC090 M04/M05 A2989 RMK AO2 SNE32 SLP122 P0000 60000 7//// T10391050 11022 21050 56011
KALS 221124Z AUTO 18009KT 3SM -SN BR OVC034 M03/M04 A2990 RMK AO2 P0000 T10331044
KALS 221120Z AUTO 18011KT 2 1/2SM -SN BR OVC027 M03/M04 A2990 RMK AO2 P0000 T10331044
KALS 221105Z AUTO 17012KT 1 1/4SM -SN BR OVC023 M03/M05 A2990 RMK AO2 P0000 T10331050
KALS 221058Z AUTO 17011KT 2SM -SN OVC029 M03/M06 A2990 RMK AO2 P0000 T10281056
KALS 221052Z AUTO 18010KT 7SM -SN OVC038 M03/M06 A2990 RMK AO2 SNB52 SLP120 P0000 T10281056
KALS 220952Z AUTO 16012KT 10SM CLR M05/M07 A2991 RMK AO2 SLP129 T10501067
KALS 220852Z AUTO 18013KT 10SM SCT110 M03/M06 A2993 RMK AO2 SLP136 T10331061 56009
KALS 220752Z AUTO 19013G23KT 10SM FEW045 M03/M06 A2994 RMK AO2 SLP145 T10281061
KALS 220652Z AUTO 18019G24KT 10SM SCT110 M02/M06 A2994 RMK AO2 SLP151 T10221061 400391189
KALS 220552Z AUTO 19014KT 10SM FEW039 BKN110 M02/M05 A2996 RMK AO2 PK WND 18026/0530 SLP162 T10221050 10022 21039 55001
KALS 220452Z AUTO 17005KT 10SM SCT055 SCT075 BKN120 M03/M07 A2996 RMK AO2 SLP174 T10331067
KALS 220352Z AUTO 18004KT 10SM BKN065 OVC085 M03/M08 A2997 RMK AO2 SLP188 T10331083
KALS 212352Z AUTO 24014KT 10SM FEW055 SCT065 02/M11 A2997 RMK AO2 SLP193 6//// T00221111 10039 21044 55005
KALS 212252Z AUTO 23016G21KT 10SM SCT060 03/M11 A2997 RMK AO2 SLP187 T00331111
KALS 212152Z AUTO 22013G22KT 10SM FEW055 03/M12 A2997 RMK AO2 SLP184 T00331117
KALS 212052Z AUTO 23010G21KT 10SM BKN049 02/M11 A2999 RMK AO2 SLP197 6//// T00171111 58027
KALS 211952Z AUTO 15007G14KT 140V210 10SM CLR 01/M12 A3003 RMK AO2 SLP218 T00061117 PNO $
KALS 211852Z AUTO VRB04KT 10SM CLR M02/M12 A3007 RMK AO2 SLP224 T10221122 PWINO FZRANO PNO $